Sumner, WA (98390)

11:43 AM PDT on August 27, 2014 (GMT -0700)
Brookside | Change Station
CLOSE
Current Station
Personal Weather Station
Location: Bonney Lake, WA
Elevation: 686 ft
Nearby Weather Stations

Elev 686 ft 47.17 °N, 122.17 °W | Updated 13 seconds ago

Clear
Clear
83.5 °F
Feels Like 83 °F
N
0.0
Wind Variable Wind from SSE
Gusts 0.0 mph

Today
High -- | Low -- °F
--% Chance of Precip.
Yesterday
High -- | Low -- °F
Precip. -- in
6:21 AM 7:58 PM
Waxing Crescent, 4% visible
Pressure 30.06 in
Visibility 10.0 miles
Clouds Clear
Heat Index 83 °F
Dew Point 59 °F
Humidity 44%
Rainfall 0.00 in
Snow Depth Not available.
UV 6 out of 12
Pollen 3.80 out of 12
PM2.5 Good
Flu Activity Not available.
METAR KTCM 271758Z AUTO VRB05KT 10SM CLR 23/15 A3005 RMK AO2 SLP178 T02340147 10234 20133 58001 $

More Conditions Fewer Conditions

Pressure 30.06 in
Visibility 10.0 miles
Clouds Clear
Heat Index 83 °F
Dew Point 59 °F
Humidity 44%
Rainfall 0.00 in
Snow Depth Not available.
UV 6 out of 12
Pollen 3.80 out of 12
PM2.5 Good
Flu Activity Not available.
METAR KTCM 271758Z AUTO VRB05KT 10SM CLR 23/15 A3005 RMK AO2 SLP178 T02340147 10234 20133 58001 $

More Conditions Fewer Conditions

10-Day Weather Forecast

Almanac

Astronomy

Aug. 27, 2014 Rise Set
Actual Time 6:21 AM PDT 7:58 PM PDT
Civil Twilight 5:49 AM PDT 8:30 PM PDT
Nautical Twilight 5:10 AM PDT 9:09 PM PDT
Astronomical Twilight 4:27 AM PDT 9:51 PM PDT
Moon 8:33 AM PDT 8:40 PM PDT
Length of Visible Light 14h 40m
Length of Day
13h 36m
Tomorrow will be 3m 13s shorter.
Waxing Crescent, 4% of the Moon is Illuminated
Today
Waxing Crescent
Sep 2
First Quarter
Sep 8
Full
Sep 15
Last Quarter
Sep 24
New

Today's Extremes

State Highs State Lows

Community

WunderPhotos

Upload Photos

1,747,752 photos uploaded!

Nearby

Air Quality

  Air Quality AQ Index Pollutant
Yesterday Moderate
PM2.5
Yesterday Good
OZONE
Current Good
PM2.5
Wednesday Good
OZONE
Wednesday Good
PM2.5
Thursday Good
OZONE
Thursday Good
PM2.5
Friday Good
OZONE
Friday Good
PM2.5
Saturday Good
OZONE
Saturday Good
PM2.5

Snow Depth

Station Depth Elevation
Stampede Pass 0 in 3860 ft
Dungeness 0 in 4100 ft
Sheep Canyon 0 in 4030 ft
Swift Creek 0 in 3770 ft
Blewett Pass 0 in 4270 ft

Earthquake Activity

City Distance Mag. Time & Date
No recent earthquake activity has been reported nearby.
Minimum magnitude displayed is 2.5.

Coastal Water Temperatures

Place Temperature
Port Townsend, WA 53.1 °F
Seattle, WA 55.9 °F
Friday Harbor, WA 54.0 °F
Tacoma, WA 55.9 °F

Nearby Weather Stations